sensor_id;sensor_type;location;lat;lon;timestamp;P1;durP1;ratioP1;P2;durP2;ratioP2
14100;SDS011;7127;49.372;8.166;2023-06-10T00:00:48;2.50;;;2.30;;
14100;SDS011;7127;49.372;8.166;2023-06-10T00:03:16;3.53;;;2.43;;
14100;SDS011;7127;49.372;8.166;2023-06-10T00:05:42;2.50;;;2.30;;
14100;SDS011;7127;49.372;8.166;2023-06-10T00:08:11;3.20;;;2.40;;
14100;SDS011;7127;49.372;8.166;2023-06-10T00:10:40;2.37;;;2.17;;
14100;SDS011;7127;49.372;8.166;2023-06-10T00:13:07;3.20;;;2.40;;
14100;SDS011;7127;49.372;8.166;2023-06-10T00:15:36;2.73;;;2.13;;
14100;SDS011;7127;49.372;8.166;2023-06-10T00:18:03;2.37;;;2.17;;
14100;SDS011;7127;49.372;8.166;2023-06-10T00:20:35;2.33;;;2.10;;
14100;SDS011;7127;49.372;8.166;2023-06-10T00:23:02;2.57;;;2.37;;
14100;SDS011;7127;49.372;8.166;2023-06-10T00:25:33;2.00;;;1.90;;
14100;SDS011;7127;49.372;8.166;2023-06-10T00:28:00;2.20;;;2.00;;
14100;SDS011;7127;49.372;8.166;2023-06-10T00:30:27;3.43;;;2.40;;
14100;SDS011;7127;49.372;8.166;2023-06-10T00:32:54;2.43;;;2.23;;
14100;SDS011;7127;49.372;8.166;2023-06-10T00:35:21;2.20;;;2.00;;
14100;SDS011;7127;49.372;8.166;2023-06-10T00:37:47;2.50;;;2.30;;
14100;SDS011;7127;49.372;8.166;2023-06-10T00:40:14;2.43;;;2.23;;
14100;SDS011;7127;49.372;8.166;2023-06-10T00:42:42;2.13;;;1.93;;
14100;SDS011;7127;49.372;8.166;2023-06-10T00:45:10;2.20;;;2.00;;
14100;SDS011;7127;49.372;8.166;2023-06-10T00:47:37;2.40;;;2.20;;
14100;SDS011;7127;49.372;8.166;2023-06-10T00:50:05;2.23;;;2.03;;
14100;SDS011;7127;49.372;8.166;2023-06-10T00:52:32;2.43;;;2.23;;
14100;SDS011;7127;49.372;8.166;2023-06-10T00:55:03;2.50;;;2.30;;
14100;SDS011;7127;49.372;8.166;2023-06-10T00:57:32;2.47;;;2.27;;
14100;SDS011;7127;49.372;8.166;2023-06-10T01:00:01;2.33;;;2.17;;
14100;SDS011;7127;49.372;8.166;2023-06-10T01:02:32;1.80;;;1.70;;
14100;SDS011;7127;49.372;8.166;2023-06-10T01:04:59;2.17;;;1.93;;
14100;SDS011;7127;49.372;8.166;2023-06-10T01:07:28;2.20;;;2.00;;
14100;SDS011;7127;49.372;8.166;2023-06-10T01:10:04;2.17;;;2.00;;
14100;SDS011;7127;49.372;8.166;2023-06-10T01:12:41;1.87;;;1.77;;
14100;SDS011;7127;49.372;8.166;2023-06-10T01:15:15;2.30;;;2.10;;
14100;SDS011;7127;49.372;8.166;2023-06-10T01:17:55;2.40;;;2.13;;
14100;SDS011;7127;49.372;8.166;2023-06-10T01:20:23;2.30;;;2.10;;
14100;SDS011;7127;49.372;8.166;2023-06-10T01:22:53;2.40;;;2.20;;
14100;SDS011;7127;49.372;8.166;2023-06-10T01:25:20;2.93;;;2.03;;
14100;SDS011;7127;49.372;8.166;2023-06-10T01:27:52;2.30;;;2.10;;
14100;SDS011;7127;49.372;8.166;2023-06-10T01:30:25;2.43;;;2.23;;
14100;SDS011;7127;49.372;8.166;2023-06-10T01:32:56;2.53;;;2.20;;
14100;SDS011;7127;49.372;8.166;2023-06-10T01:35:25;2.10;;;2.00;;
14100;SDS011;7127;49.372;8.166;2023-06-10T01:37:55;2.63;;;2.10;;
14100;SDS011;7127;49.372;8.166;2023-06-10T01:40:24;2.30;;;2.10;;
14100;SDS011;7127;49.372;8.166;2023-06-10T01:42:52;2.43;;;2.23;;
14100;SDS011;7127;49.372;8.166;2023-06-10T01:45:19;2.50;;;2.30;;
14100;SDS011;7127;49.372;8.166;2023-06-10T01:47:46;2.60;;;2.40;;
14100;SDS011;7127;49.372;8.166;2023-06-10T01:50:13;2.03;;;1.93;;
14100;SDS011;7127;49.372;8.166;2023-06-10T01:52:41;2.33;;;2.10;;
14100;SDS011;7127;49.372;8.166;2023-06-10T01:55:09;2.30;;;2.10;;
14100;SDS011;7127;49.372;8.166;2023-06-10T01:57:36;2.57;;;2.20;;
14100;SDS011;7127;49.372;8.166;2023-06-10T02:00:03;2.43;;;2.23;;
14100;SDS011;7127;49.372;8.166;2023-06-10T02:02:31;2.47;;;2.27;;
14100;SDS011;7127;49.372;8.166;2023-06-10T02:04:57;2.40;;;2.20;;
14100;SDS011;7127;49.372;8.166;2023-06-10T02:07:25;2.50;;;2.30;;
14100;SDS011;7127;49.372;8.166;2023-06-10T02:09:52;2.53;;;2.33;;
14100;SDS011;7127;49.372;8.166;2023-06-10T02:12:20;2.70;;;2.50;;
14100;SDS011;7127;49.372;8.166;2023-06-10T02:14:46;2.50;;;2.30;;
14100;SDS011;7127;49.372;8.166;2023-06-10T02:17:13;2.50;;;2.30;;
14100;SDS011;7127;49.372;8.166;2023-06-10T02:19:40;3.30;;;2.20;;
14100;SDS011;7127;49.372;8.166;2023-06-10T02:22:08;2.50;;;2.30;;
14100;SDS011;7127;49.372;8.166;2023-06-10T02:24:35;2.60;;;2.40;;
14100;SDS011;7127;49.372;8.166;2023-06-10T02:27:03;2.37;;;2.17;;
14100;SDS011;7127;49.372;8.166;2023-06-10T02:29:34;2.80;;;2.50;;
14100;SDS011;7127;49.372;8.166;2023-06-10T02:32:01;2.60;;;2.40;;
14100;SDS011;7127;49.372;8.166;2023-06-10T02:34:29;2.40;;;2.20;;
14100;SDS011;7127;49.372;8.166;2023-06-10T02:36:56;2.43;;;2.23;;
14100;SDS011;7127;49.372;8.166;2023-06-10T02:39:23;2.60;;;2.40;;
14100;SDS011;7127;49.372;8.166;2023-06-10T02:41:50;2.30;;;2.10;;
14100;SDS011;7127;49.372;8.166;2023-06-10T02:44:17;2.57;;;2.37;;
14100;SDS011;7127;49.372;8.166;2023-06-10T02:46:45;2.70;;;2.50;;
14100;SDS011;7127;49.372;8.166;2023-06-10T02:49:12;2.50;;;2.30;;
14100;SDS011;7127;49.372;8.166;2023-06-10T02:51:39;2.47;;;2.27;;
14100;SDS011;7127;49.372;8.166;2023-06-10T02:54:06;3.97;;;2.57;;
14100;SDS011;7127;49.372;8.166;2023-06-10T02:56:33;4.80;;;2.17;;
14100;SDS011;7127;49.372;8.166;2023-06-10T02:59:00;2.63;;;2.30;;
14100;SDS011;7127;49.372;8.166;2023-06-10T03:01:26;2.30;;;2.10;;
14100;SDS011;7127;49.372;8.166;2023-06-10T03:03:55;2.33;;;2.13;;
14100;SDS011;7127;49.372;8.166;2023-06-10T03:06:22;2.20;;;2.00;;
14100;SDS011;7127;49.372;8.166;2023-06-10T03:08:51;2.53;;;2.33;;
14100;SDS011;7127;49.372;8.166;2023-06-10T03:11:18;2.23;;;2.03;;
14100;SDS011;7127;49.372;8.166;2023-06-10T03:13:45;2.20;;;2.00;;
14100;SDS011;7127;49.372;8.166;2023-06-10T03:16:12;2.50;;;2.30;;
14100;SDS011;7127;49.372;8.166;2023-06-10T03:18:38;2.60;;;2.40;;
14100;SDS011;7127;49.372;8.166;2023-06-10T03:21:07;3.73;;;2.40;;
14100;SDS011;7127;49.372;8.166;2023-06-10T03:23:34;2.80;;;2.60;;
14100;SDS011;7127;49.372;8.166;2023-06-10T03:26:01;3.20;;;2.90;;
14100;SDS011;7127;49.372;8.166;2023-06-10T03:28:29;2.20;;;2.00;;
14100;SDS011;7127;49.372;8.166;2023-06-10T03:30:56;2.40;;;2.20;;
14100;SDS011;7127;49.372;8.166;2023-06-10T03:33:23;2.73;;;2.53;;
14100;SDS011;7127;49.372;8.166;2023-06-10T03:35:51;2.73;;;2.40;;
14100;SDS011;7127;49.372;8.166;2023-06-10T03:38:19;2.53;;;2.33;;
14100;SDS011;7127;49.372;8.166;2023-06-10T03:40:46;2.83;;;2.43;;
14100;SDS011;7127;49.372;8.166;2023-06-10T03:43:13;2.50;;;2.30;;
14100;SDS011;7127;49.372;8.166;2023-06-10T03:45:40;2.50;;;2.30;;
14100;SDS011;7127;49.372;8.166;2023-06-10T03:48:07;2.53;;;2.33;;
14100;SDS011;7127;49.372;8.166;2023-06-10T03:50:36;2.40;;;2.20;;
14100;SDS011;7127;49.372;8.166;2023-06-10T03:53:03;2.90;;;2.60;;
14100;SDS011;7127;49.372;8.166;2023-06-10T03:55:31;2.60;;;2.40;;
14100;SDS011;7127;49.372;8.166;2023-06-10T03:57:58;2.67;;;2.47;;
14100;SDS011;7127;49.372;8.166;2023-06-10T04:00:24;2.30;;;2.10;;
14100;SDS011;7127;49.372;8.166;2023-06-10T04:02:51;2.30;;;2.10;;
14100;SDS011;7127;49.372;8.166;2023-06-10T04:05:18;2.30;;;2.10;;
14100;SDS011;7127;49.372;8.166;2023-06-10T04:07:47;2.73;;;2.37;;
14100;SDS011;7127;49.372;8.166;2023-06-10T04:10:14;2.60;;;2.40;;
14100;SDS011;7127;49.372;8.166;2023-06-10T04:12:43;3.53;;;2.40;;
14100;SDS011;7127;49.372;8.166;2023-06-10T04:15:10;2.07;;;1.97;;
14100;SDS011;7127;49.372;8.166;2023-06-10T04:17:38;2.70;;;2.30;;
14100;SDS011;7127;49.372;8.166;2023-06-10T04:20:06;2.17;;;2.07;;
14100;SDS011;7127;49.372;8.166;2023-06-10T04:22:34;2.60;;;2.40;;
14100;SDS011;7127;49.372;8.166;2023-06-10T04:25:01;2.47;;;2.27;;
14100;SDS011;7127;49.372;8.166;2023-06-10T04:27:28;2.63;;;2.17;;
14100;SDS011;7127;49.372;8.166;2023-06-10T04:29:56;2.80;;;2.40;;
14100;SDS011;7127;49.372;8.166;2023-06-10T04:32:23;2.57;;;2.37;;
14100;SDS011;7127;49.372;8.166;2023-06-10T04:34:50;2.37;;;2.17;;
14100;SDS011;7127;49.372;8.166;2023-06-10T04:37:17;2.43;;;2.23;;
14100;SDS011;7127;49.372;8.166;2023-06-10T04:39:45;3.30;;;2.30;;
14100;SDS011;7127;49.372;8.166;2023-06-10T04:42:11;2.70;;;2.50;;
14100;SDS011;7127;49.372;8.166;2023-06-10T04:44:38;2.63;;;2.43;;
14100;SDS011;7127;49.372;8.166;2023-06-10T04:47:07;2.50;;;2.30;;
14100;SDS011;7127;49.372;8.166;2023-06-10T04:49:34;3.97;;;2.20;;
14100;SDS011;7127;49.372;8.166;2023-06-10T04:52:01;2.40;;;2.20;;
14100;SDS011;7127;49.372;8.166;2023-06-10T04:54:29;2.27;;;2.07;;
14100;SDS011;7127;49.372;8.166;2023-06-10T04:56:57;2.57;;;2.37;;
14100;SDS011;7127;49.372;8.166;2023-06-10T04:59:24;2.30;;;2.10;;
14100;SDS011;7127;49.372;8.166;2023-06-10T05:01:51;3.30;;;2.03;;
14100;SDS011;7127;49.372;8.166;2023-06-10T05:04:19;2.87;;;2.23;;
14100;SDS011;7127;49.372;8.166;2023-06-10T05:06:46;2.30;;;2.10;;
14100;SDS011;7127;49.372;8.166;2023-06-10T05:09:13;2.60;;;2.40;;
14100;SDS011;7127;49.372;8.166;2023-06-10T05:11:40;2.53;;;2.33;;
14100;SDS011;7127;49.372;8.166;2023-06-10T05:14:07;3.13;;;2.47;;
14100;SDS011;7127;49.372;8.166;2023-06-10T05:16:34;2.80;;;2.33;;
14100;SDS011;7127;49.372;8.166;2023-06-10T05:19:00;2.50;;;2.30;;
14100;SDS011;7127;49.372;8.166;2023-06-10T05:21:29;2.80;;;2.60;;
14100;SDS011;7127;49.372;8.166;2023-06-10T05:23:56;2.53;;;2.10;;
14100;SDS011;7127;49.372;8.166;2023-06-10T05:26:23;2.53;;;2.33;;
14100;SDS011;7127;49.372;8.166;2023-06-10T05:28:50;2.83;;;2.30;;
14100;SDS011;7127;49.372;8.166;2023-06-10T05:31:17;3.97;;;2.83;;
14100;SDS011;7127;49.372;8.166;2023-06-10T05:33:44;2.57;;;2.37;;
14100;SDS011;7127;49.372;8.166;2023-06-10T05:36:11;3.13;;;2.50;;
14100;SDS011;7127;49.372;8.166;2023-06-10T05:38:39;3.93;;;2.63;;
14100;SDS011;7127;49.372;8.166;2023-06-10T05:41:06;2.50;;;2.30;;
14100;SDS011;7127;49.372;8.166;2023-06-10T05:43:33;2.47;;;2.27;;
14100;SDS011;7127;49.372;8.166;2023-06-10T05:46:00;2.63;;;2.43;;
14100;SDS011;7127;49.372;8.166;2023-06-10T05:48:26;3.70;;;2.13;;
14100;SDS011;7127;49.372;8.166;2023-06-10T05:50:53;2.83;;;2.63;;
14100;SDS011;7127;49.372;8.166;2023-06-10T05:53:20;6.50;;;2.70;;
14100;SDS011;7127;49.372;8.166;2023-06-10T05:55:48;2.60;;;2.40;;
14100;SDS011;7127;49.372;8.166;2023-06-10T05:58:16;2.37;;;2.17;;
14100;SDS011;7127;49.372;8.166;2023-06-10T06:00:43;2.70;;;2.50;;
14100;SDS011;7127;49.372;8.166;2023-06-10T06:03:10;2.70;;;2.50;;
14100;SDS011;7127;49.372;8.166;2023-06-10T06:05:37;2.63;;;2.43;;
14100;SDS011;7127;49.372;8.166;2023-06-10T06:08:03;5.13;;;2.60;;
14100;SDS011;7127;49.372;8.166;2023-06-10T06:10:31;2.80;;;2.60;;
14100;SDS011;7127;49.372;8.166;2023-06-10T06:12:59;2.90;;;2.70;;
14100;SDS011;7127;49.372;8.166;2023-06-10T06:15:27;2.77;;;2.30;;
14100;SDS011;7127;49.372;8.166;2023-06-10T06:17:53;3.23;;;2.90;;
14100;SDS011;7127;49.372;8.166;2023-06-10T06:20:21;2.60;;;2.40;;
14100;SDS011;7127;49.372;8.166;2023-06-10T06:22:48;2.87;;;2.60;;
14100;SDS011;7127;49.372;8.166;2023-06-10T06:25:15;4.30;;;2.63;;
14100;SDS011;7127;49.372;8.166;2023-06-10T06:27:42;2.83;;;2.63;;
14100;SDS011;7127;49.372;8.166;2023-06-10T06:30:10;2.50;;;2.30;;
14100;SDS011;7127;49.372;8.166;2023-06-10T06:32:38;2.73;;;2.30;;
14100;SDS011;7127;49.372;8.166;2023-06-10T06:35:05;2.60;;;2.40;;
14100;SDS011;7127;49.372;8.166;2023-06-10T06:37:33;3.17;;;2.87;;
14100;SDS011;7127;49.372;8.166;2023-06-10T06:40:00;3.17;;;2.90;;
14100;SDS011;7127;49.372;8.166;2023-06-10T06:42:27;3.23;;;2.93;;
14100;SDS011;7127;49.372;8.166;2023-06-10T06:44:54;2.70;;;2.50;;
14100;SDS011;7127;49.372;8.166;2023-06-10T06:47:22;2.75;;;2.53;;
14100;SDS011;7127;49.372;8.166;2023-06-10T06:49:49;2.67;;;2.47;;
14100;SDS011;7127;49.372;8.166;2023-06-10T06:52:16;3.40;;;2.57;;
14100;SDS011;7127;49.372;8.166;2023-06-10T06:54:43;2.90;;;2.60;;
14100;SDS011;7127;49.372;8.166;2023-06-10T06:57:10;2.55;;;2.28;;
14100;SDS011;7127;49.372;8.166;2023-06-10T06:59:37;2.63;;;2.42;;
14100;SDS011;7127;49.372;8.166;2023-06-10T07:02:04;3.15;;;2.85;;
14100;SDS011;7127;49.372;8.166;2023-06-10T07:04:33;2.58;;;2.38;;
14100;SDS011;7127;49.372;8.166;2023-06-10T07:07:00;2.80;;;2.40;;
14100;SDS011;7127;49.372;8.166;2023-06-10T07:09:27;2.47;;;2.28;;
14100;SDS011;7127;49.372;8.166;2023-06-10T07:11:54;3.10;;;2.40;;
14100;SDS011;7127;49.372;8.166;2023-06-10T07:14:21;2.83;;;2.38;;
14100;SDS011;7127;49.372;8.166;2023-06-10T07:16:48;2.08;;;1.95;;
14100;SDS011;7127;49.372;8.166;2023-06-10T07:19:14;2.30;;;2.10;;
14100;SDS011;7127;49.372;8.166;2023-06-10T07:21:43;2.78;;;2.13;;
14100;SDS011;7127;49.372;8.166;2023-06-10T07:24:09;2.17;;;1.98;;
14100;SDS011;7127;49.372;8.166;2023-06-10T07:26:37;1.90;;;1.80;;
14100;SDS011;7127;49.372;8.166;2023-06-10T07:29:04;2.20;;;2.00;;
14100;SDS011;7127;49.372;8.166;2023-06-10T07:31:31;2.92;;;2.42;;
14100;SDS011;7127;49.372;8.166;2023-06-10T07:33:58;3.33;;;2.55;;
14100;SDS011;7127;49.372;8.166;2023-06-10T07:36:25;2.40;;;2.20;;
14100;SDS011;7127;49.372;8.166;2023-06-10T07:38:55;3.15;;;2.30;;
14100;SDS011;7127;49.372;8.166;2023-06-10T07:41:22;2.97;;;2.25;;
14100;SDS011;7127;49.372;8.166;2023-06-10T07:43:49;2.55;;;2.28;;
14100;SDS011;7127;49.372;8.166;2023-06-10T07:46:19;2.13;;;1.92;;
14100;SDS011;7127;49.372;8.166;2023-06-10T07:48:46;3.97;;;2.10;;
14100;SDS011;7127;49.372;8.166;2023-06-10T07:51:13;2.33;;;2.13;;
14100;SDS011;7127;49.372;8.166;2023-06-10T07:53:40;2.08;;;1.98;;
14100;SDS011;7127;49.372;8.166;2023-06-10T07:56:09;2.30;;;2.10;;
14100;SDS011;7127;49.372;8.166;2023-06-10T07:58:35;2.35;;;2.15;;
14100;SDS011;7127;49.372;8.166;2023-06-10T08:01:03;2.45;;;2.25;;
14100;SDS011;7127;49.372;8.166;2023-06-10T08:03:30;2.08;;;1.90;;
14100;SDS011;7127;49.372;8.166;2023-06-10T08:05:56;2.47;;;2.28;;
14100;SDS011;7127;49.372;8.166;2023-06-10T08:08:23;2.33;;;2.13;;
14100;SDS011;7127;49.372;8.166;2023-06-10T08:10:50;1.98;;;1.88;;
14100;SDS011;7127;49.372;8.166;2023-06-10T08:13:18;2.28;;;2.08;;
14100;SDS011;7127;49.372;8.166;2023-06-10T08:15:45;2.72;;;2.45;;
14100;SDS011;7127;49.372;8.166;2023-06-10T08:18:12;2.13;;;1.88;;
14100;SDS011;7127;49.372;8.166;2023-06-10T08:20:39;2.75;;;2.20;;
14100;SDS011;7127;49.372;8.166;2023-06-10T08:23:06;1.92;;;1.83;;
14100;SDS011;7127;49.372;8.166;2023-06-10T08:25:33;3.28;;;2.03;;
14100;SDS011;7127;49.372;8.166;2023-06-10T08:28:00;2.28;;;2.08;;
14100;SDS011;7127;49.372;8.166;2023-06-10T08:30:28;2.22;;;2.03;;
14100;SDS011;7127;49.372;8.166;2023-06-10T08:32:55;2.70;;;2.50;;
14100;SDS011;7127;49.372;8.166;2023-06-10T08:35:22;2.88;;;2.50;;
14100;SDS011;7127;49.372;8.166;2023-06-10T08:37:48;2.42;;;2.17;;
14100;SDS011;7127;49.372;8.166;2023-06-10T08:40:15;2.50;;;2.30;;
14100;SDS011;7127;49.372;8.166;2023-06-10T08:42:43;2.33;;;2.13;;
14100;SDS011;7127;49.372;8.166;2023-06-10T08:45:16;2.50;;;2.30;;
14100;SDS011;7127;49.372;8.166;2023-06-10T08:47:49;2.20;;;2.10;;
14100;SDS011;7127;49.372;8.166;2023-06-10T08:50:17;2.30;;;2.10;;
14100;SDS011;7127;49.372;8.166;2023-06-10T08:52:44;3.35;;;2.63;;
14100;SDS011;7127;49.372;8.166;2023-06-10T08:55:15;2.75;;;2.10;;
14100;SDS011;7127;49.372;8.166;2023-06-10T08:57:47;2.33;;;2.13;;
14100;SDS011;7127;49.372;8.166;2023-06-10T09:00:15;2.70;;;2.08;;
14100;SDS011;7127;49.372;8.166;2023-06-10T09:02:43;2.30;;;2.10;;
14100;SDS011;7127;49.372;8.166;2023-06-10T09:05:12;2.33;;;2.13;;
14100;SDS011;7127;49.372;8.166;2023-06-10T09:07:40;2.45;;;2.10;;
14100;SDS011;7127;49.372;8.166;2023-06-10T09:10:07;2.30;;;2.10;;
14100;SDS011;7127;49.372;8.166;2023-06-10T09:12:35;3.42;;;2.20;;
14100;SDS011;7127;49.372;8.166;2023-06-10T09:15:03;2.83;;;2.60;;
14100;SDS011;7127;49.372;8.166;2023-06-10T09:17:31;2.15;;;2.05;;
14100;SDS011;7127;49.372;8.166;2023-06-10T09:19:59;2.67;;;2.15;;
14100;SDS011;7127;49.372;8.166;2023-06-10T09:22:29;2.95;;;2.00;;
14100;SDS011;7127;49.372;8.166;2023-06-10T09:25:02;2.30;;;2.10;;
14100;SDS011;7127;49.372;8.166;2023-06-10T09:27:31;3.65;;;1.95;;
14100;SDS011;7127;49.372;8.166;2023-06-10T09:29:58;2.75;;;2.10;;
14100;SDS011;7127;49.372;8.166;2023-06-10T09:32:25;2.60;;;2.40;;
14100;SDS011;7127;49.372;8.166;2023-06-10T09:34:53;2.47;;;2.28;;
14100;SDS011;7127;49.372;8.166;2023-06-10T09:37:20;2.15;;;2.05;;
14100;SDS011;7127;49.372;8.166;2023-06-10T09:40:01;2.17;;;2.08;;
14100;SDS011;7127;49.372;8.166;2023-06-10T09:42:32;2.47;;;2.28;;
14100;SDS011;7127;49.372;8.166;2023-06-10T09:45:01;2.63;;;2.10;;
14100;SDS011;7127;49.372;8.166;2023-06-10T09:47:27;2.42;;;2.22;;
14100;SDS011;7127;49.372;8.166;2023-06-10T09:49:55;2.42;;;2.03;;
14100;SDS011;7127;49.372;8.166;2023-06-10T09:52:22;2.20;;;2.00;;
14100;SDS011;7127;49.372;8.166;2023-06-10T09:54:49;2.25;;;2.13;;
14100;SDS011;7127;49.372;8.166;2023-06-10T09:57:18;2.58;;;2.30;;
14100;SDS011;7127;49.372;8.166;2023-06-10T09:59:45;3.33;;;2.30;;
14100;SDS011;7127;49.372;8.166;2023-06-10T10:02:13;3.55;;;2.30;;
14100;SDS011;7127;49.372;8.166;2023-06-10T10:04:40;2.50;;;2.30;;
14100;SDS011;7127;49.372;8.166;2023-06-10T10:07:07;4.93;;;2.38;;
14100;SDS011;7127;49.372;8.166;2023-06-10T10:09:35;2.78;;;2.35;;
14100;SDS011;7127;49.372;8.166;2023-06-10T10:12:02;2.83;;;2.38;;
14100;SDS011;7127;49.372;8.166;2023-06-10T10:14:32;2.40;;;2.20;;
14100;SDS011;7127;49.372;8.166;2023-06-10T10:17:00;2.17;;;2.03;;
14100;SDS011;7127;49.372;8.166;2023-06-10T10:19:31;2.78;;;2.47;;
14100;SDS011;7127;49.372;8.166;2023-06-10T10:22:03;2.80;;;2.60;;
14100;SDS011;7127;49.372;8.166;2023-06-10T10:24:38;3.55;;;2.55;;
14100;SDS011;7127;49.372;8.166;2023-06-10T10:27:11;2.40;;;2.20;;
14100;SDS011;7127;49.372;8.166;2023-06-10T10:29:45;3.00;;;2.22;;
14100;SDS011;7127;49.372;8.166;2023-06-10T10:32:14;2.60;;;2.40;;
14100;SDS011;7127;49.372;8.166;2023-06-10T10:34:47;2.88;;;1.83;;
14100;SDS011;7127;49.372;8.166;2023-06-10T10:37:19;2.80;;;2.60;;
14100;SDS011;7127;49.372;8.166;2023-06-10T10:39:46;3.05;;;2.85;;
14100;SDS011;7127;49.372;8.166;2023-06-10T10:42:13;3.22;;;2.40;;
14100;SDS011;7127;49.372;8.166;2023-06-10T10:44:41;2.95;;;2.75;;
14100;SDS011;7127;49.372;8.166;2023-06-10T10:47:10;2.55;;;2.35;;
14100;SDS011;7127;49.372;8.166;2023-06-10T10:49:38;3.15;;;2.88;;
14100;SDS011;7127;49.372;8.166;2023-06-10T10:52:11;2.80;;;2.60;;
14100;SDS011;7127;49.372;8.166;2023-06-10T10:54:39;2.58;;;2.38;;
14100;SDS011;7127;49.372;8.166;2023-06-10T10:57:11;2.90;;;2.53;;
14100;SDS011;7127;49.372;8.166;2023-06-10T10:59:51;2.42;;;2.22;;
14100;SDS011;7127;49.372;8.166;2023-06-10T11:02:35;3.03;;;2.53;;
14100;SDS011;7127;49.372;8.166;2023-06-10T11:05:05;2.70;;;2.50;;
14100;SDS011;7127;49.372;8.166;2023-06-10T11:07:34;3.08;;;2.88;;
14100;SDS011;7127;49.372;8.166;2023-06-10T11:10:02;4.95;;;2.63;;
14100;SDS011;7127;49.372;8.166;2023-06-10T11:12:49;2.67;;;2.47;;
14100;SDS011;7127;49.372;8.166;2023-06-10T11:15:19;2.47;;;2.28;;
14100;SDS011;7127;49.372;8.166;2023-06-10T11:20:50;2.70;;;2.50;;
14100;SDS011;7127;49.372;8.166;2023-06-10T11:23:26;2.67;;;2.47;;
14100;SDS011;7127;49.372;8.166;2023-06-10T11:26:12;2.20;;;2.00;;
14100;SDS011;7127;49.372;8.166;2023-06-10T11:29:01;2.53;;;2.33;;
14100;SDS011;7127;49.372;8.166;2023-06-10T11:31:33;2.50;;;2.30;;
14100;SDS011;7127;49.372;8.166;2023-06-10T11:34:07;2.35;;;2.15;;
14100;SDS011;7127;49.372;8.166;2023-06-10T11:36:36;3.03;;;2.72;;
14100;SDS011;7127;49.372;8.166;2023-06-10T11:39:05;2.60;;;2.40;;
14100;SDS011;7127;49.372;8.166;2023-06-10T11:41:33;2.45;;;2.25;;
14100;SDS011;7127;49.372;8.166;2023-06-10T11:44:02;2.58;;;2.30;;
14100;SDS011;7127;49.372;8.166;2023-06-10T11:46:30;2.33;;;2.13;;
14100;SDS011;7127;49.372;8.166;2023-06-10T11:48:57;2.25;;;1.90;;
14100;SDS011;7127;49.372;8.166;2023-06-10T11:51:26;2.15;;;2.00;;
14100;SDS011;7127;49.372;8.166;2023-06-10T11:53:54;2.95;;;2.00;;
14100;SDS011;7127;49.372;8.166;2023-06-10T11:56:21;2.30;;;2.10;;
14100;SDS011;7127;49.372;8.166;2023-06-10T11:58:52;2.40;;;2.20;;
14100;SDS011;7127;49.372;8.166;2023-06-10T12:01:20;2.60;;;2.40;;
14100;SDS011;7127;49.372;8.166;2023-06-10T12:03:48;2.47;;;2.25;;
14100;SDS011;7127;49.372;8.166;2023-06-10T12:06:22;2.42;;;2.22;;
14100;SDS011;7127;49.372;8.166;2023-06-10T12:08:50;2.30;;;2.10;;
14100;SDS011;7127;49.372;8.166;2023-06-10T12:11:17;2.30;;;2.08;;
14100;SDS011;7127;49.372;8.166;2023-06-10T12:13:46;1.80;;;1.70;;
14100;SDS011;7127;49.372;8.166;2023-06-10T12:16:14;2.47;;;2.22;;
14100;SDS011;7127;49.372;8.166;2023-06-10T12:18:42;3.28;;;1.80;;
14100;SDS011;7127;49.372;8.166;2023-06-10T12:21:17;1.98;;;1.77;;
14100;SDS011;7127;49.372;8.166;2023-06-10T12:24:05;1.83;;;1.60;;
14100;SDS011;7127;49.372;8.166;2023-06-10T12:26:36;1.90;;;1.70;;
14100;SDS011;7127;49.372;8.166;2023-06-10T12:29:21;1.73;;;1.63;;
14100;SDS011;7127;49.372;8.166;2023-06-10T12:31:53;1.80;;;1.70;;
14100;SDS011;7127;49.372;8.166;2023-06-10T12:34:30;2.00;;;1.90;;
14100;SDS011;7127;49.372;8.166;2023-06-10T12:37:01;1.83;;;1.73;;
14100;SDS011;7127;49.372;8.166;2023-06-10T12:39:31;1.75;;;1.65;;
14100;SDS011;7127;49.372;8.166;2023-06-10T12:41:58;2.00;;;1.80;;
14100;SDS011;7127;49.372;8.166;2023-06-10T12:44:30;3.35;;;1.60;;
14100;SDS011;7127;49.372;8.166;2023-06-10T12:47:00;2.03;;;1.90;;
14100;SDS011;7127;49.372;8.166;2023-06-10T12:49:33;1.75;;;1.65;;
14100;SDS011;7127;49.372;8.166;2023-06-10T12:52:01;2.20;;;2.00;;
14100;SDS011;7127;49.372;8.166;2023-06-10T12:54:28;2.08;;;1.88;;
14100;SDS011;7127;49.372;8.166;2023-06-10T12:56:56;1.88;;;1.77;;
14100;SDS011;7127;49.372;8.166;2023-06-10T12:59:23;1.77;;;1.67;;
14100;SDS011;7127;49.372;8.166;2023-06-10T13:01:50;2.15;;;1.65;;
14100;SDS011;7127;49.372;8.166;2023-06-10T13:04:18;1.98;;;1.88;;
14100;SDS011;7127;49.372;8.166;2023-06-10T13:06:44;2.03;;;1.40;;
14100;SDS011;7127;49.372;8.166;2023-06-10T13:09:12;3.88;;;1.70;;
14100;SDS011;7127;49.372;8.166;2023-06-10T13:11:39;1.42;;;1.33;;
14100;SDS011;7127;49.372;8.166;2023-06-10T13:14:08;1.70;;;1.60;;
14100;SDS011;7127;49.372;8.166;2023-06-10T13:16:36;1.58;;;1.48;;
14100;SDS011;7127;49.372;8.166;2023-06-10T13:19:03;1.60;;;1.50;;
14100;SDS011;7127;49.372;8.166;2023-06-10T13:21:30;1.55;;;1.45;;
14100;SDS011;7127;49.372;8.166;2023-06-10T13:23:57;1.80;;;1.70;;
14100;SDS011;7127;49.372;8.166;2023-06-10T13:26:24;1.95;;;1.50;;
14100;SDS011;7127;49.372;8.166;2023-06-10T13:28:51;1.70;;;1.60;;
14100;SDS011;7127;49.372;8.166;2023-06-10T13:31:20;2.95;;;1.65;;
14100;SDS011;7127;49.372;8.166;2023-06-10T13:33:47;2.10;;;1.90;;
14100;SDS011;7127;49.372;8.166;2023-06-10T13:36:13;2.40;;;1.50;;
14100;SDS011;7127;49.372;8.166;2023-06-10T13:38:40;1.90;;;1.80;;
14100;SDS011;7127;49.372;8.166;2023-06-10T13:41:07;1.67;;;1.58;;
14100;SDS011;7127;49.372;8.166;2023-06-10T13:43:35;1.50;;;1.38;;
14100;SDS011;7127;49.372;8.166;2023-06-10T13:46:02;1.52;;;1.42;;
14100;SDS011;7127;49.372;8.166;2023-06-10T13:48:30;1.77;;;1.67;;
14100;SDS011;7127;49.372;8.166;2023-06-10T13:50:57;1.50;;;1.40;;
14100;SDS011;7127;49.372;8.166;2023-06-10T13:53:25;1.63;;;1.52;;
14100;SDS011;7127;49.372;8.166;2023-06-10T13:55:52;1.50;;;1.40;;
14100;SDS011;7127;49.372;8.166;2023-06-10T13:58:19;1.52;;;1.42;;
14100;SDS011;7127;49.372;8.166;2023-06-10T14:00:46;1.92;;;1.83;;
14100;SDS011;7127;49.372;8.166;2023-06-10T14:03:13;1.80;;;1.70;;
14100;SDS011;7127;49.372;8.166;2023-06-10T14:05:41;1.77;;;1.67;;
14100;SDS011;7127;49.372;8.166;2023-06-10T14:08:08;3.22;;;1.55;;
14100;SDS011;7127;49.372;8.166;2023-06-10T14:10:35;1.67;;;1.58;;
14100;SDS011;7127;49.372;8.166;2023-06-10T14:13:02;1.55;;;1.45;;
14100;SDS011;7127;49.372;8.166;2023-06-10T14:15:30;1.85;;;1.75;;
14100;SDS011;7127;49.372;8.166;2023-06-10T14:17:57;1.50;;;1.40;;
14100;SDS011;7127;49.372;8.166;2023-06-10T14:20:24;1.80;;;1.70;;
14100;SDS011;7127;49.372;8.166;2023-06-10T14:22:53;3.05;;;1.80;;
14100;SDS011;7127;49.372;8.166;2023-06-10T14:25:19;1.95;;;1.70;;
14100;SDS011;7127;49.372;8.166;2023-06-10T14:27:46;1.73;;;1.63;;
14100;SDS011;7127;49.372;8.166;2023-06-10T14:30:13;2.47;;;1.55;;
14100;SDS011;7127;49.372;8.166;2023-06-10T14:32:40;1.75;;;1.63;;
14100;SDS011;7127;49.372;8.166;2023-06-10T14:35:07;1.90;;;1.80;;
14100;SDS011;7127;49.372;8.166;2023-06-10T14:37:34;1.90;;;1.80;;
14100;SDS011;7127;49.372;8.166;2023-06-10T14:40:03;1.70;;;1.60;;
14100;SDS011;7127;49.372;8.166;2023-06-10T14:42:31;1.65;;;1.55;;
14100;SDS011;7127;49.372;8.166;2023-06-10T14:44:58;1.50;;;1.40;;
14100;SDS011;7127;49.372;8.166;2023-06-10T14:47:25;2.40;;;1.45;;
14100;SDS011;7127;49.372;8.166;2023-06-10T14:49:52;1.55;;;1.45;;
14100;SDS011;7127;49.372;8.166;2023-06-10T14:52:19;1.50;;;1.40;;
14100;SDS011;7127;49.372;8.166;2023-06-10T14:54:46;1.92;;;1.73;;
14100;SDS011;7127;49.372;8.166;2023-06-10T14:57:14;1.60;;;1.50;;
14100;SDS011;7127;49.372;8.166;2023-06-10T14:59:41;1.60;;;1.50;;
14100;SDS011;7127;49.372;8.166;2023-06-10T15:02:08;1.70;;;1.60;;
14100;SDS011;7127;49.372;8.166;2023-06-10T15:04:34;1.75;;;1.65;;
14100;SDS011;7127;49.372;8.166;2023-06-10T15:07:04;2.25;;;1.50;;
14100;SDS011;7127;49.372;8.166;2023-06-10T15:09:31;1.50;;;1.40;;